Time;durP1;ratioP1;P1;durP2;ratioP2;P2;SDS_P1;SDS_P2;PMS_P1;PMS_P2;Temp;Humidity;BMP_temperature;BMP_pressure;BME280_temperature;BME280_humidity;BME280_pressure;Samples;Min_cycle;Max_cycle;Signal;HPM_P1;HPM_P2
2021/12/29 00:00:45;;;;;;;27.37;12.45;;;;;;;-3.59;77.96;99409.17;1760847;81;27576;-70
2021/12/29 00:03:15;;;;;;;25.35;11.80;;;;;;;-3.58;78.08;99410.77;1761788;81;25640;-72
2021/12/29 00:05:42;;;;;;;32.55;13.95;;;;;;;-3.58;77.94;99416.84;1760454;81;25623;-71
2021/12/29 00:08:08;;;;;;;24.20;12.33;;;;;;;-3.61;77.95;99407.27;1736170;81;25889;-71
2021/12/29 00:10:34;;;;;;;25.77;11.80;;;;;;;-3.61;78.05;99404.63;1762011;81;25574;-72
2021/12/29 00:13:04;;;;;;;26.40;11.00;;;;;;;-3.63;78.08;99393.49;1762070;81;27313;-71
2021/12/29 00:15:29;;;;;;;24.60;12.23;;;;;;;-3.63;78.14;99401.42;1733019;82;25515;-71
2021/12/29 00:17:58;;;;;;;25.60;11.90;;;;;;;-3.63;78.13;99399.57;1764937;81;25628;-71
2021/12/29 00:20:29;;;;;;;29.40;12.70;;;;;;;-3.62;78.14;99403.04;1765225;81;25640;-71
2021/12/29 00:23:03;;;;;;;23.85;12.78;;;;;;;-3.60;78.16;99406.23;1765059;81;25671;-71
2021/12/29 00:25:30;;;;;;;27.13;13.08;;;;;;;-3.60;78.03;99414.17;1764756;81;27498;-71
2021/12/29 00:27:59;;;;;;;28.83;12.93;;;;;;;-3.58;78.08;99409.44;1764702;81;25626;-71
2021/12/29 00:30:27;;;;;;;24.47;12.73;;;;;;;-3.56;78.15;99408.68;1765090;81;25624;-71
2021/12/29 00:32:54;;;;;;;25.70;11.75;;;;;;;-3.53;78.07;99407.41;1764826;81;26142;-72
2021/12/29 00:35:20;;;;;;;23.85;12.95;;;;;;;-3.55;77.97;99407.65;1764924;81;25694;-71
2021/12/29 00:37:47;;;;;;;25.60;13.08;;;;;;;-3.59;78.00;99409.17;1764843;81;27975;-72
2021/12/29 00:40:14;;;;;;;24.18;12.98;;;;;;;-3.60;78.04;99400.42;1764813;81;25610;-72
2021/12/29 00:42:41;;;;;;;25.00;12.50;;;;;;;-3.62;78.21;99407.80;1710219;81;25575;-71
2021/12/29 00:45:09;;;;;;;29.05;13.58;;;;;;;-3.62;78.19;99403.04;1764933;81;25730;-71
2021/12/29 00:47:38;;;;;;;27.90;13.53;;;;;;;-3.64;78.13;99412.52;1739295;81;25424;-71
2021/12/29 00:50:10;;;;;;;23.80;12.10;;;;;;;-3.62;78.24;99410.44;1764995;81;28074;-72
2021/12/29 00:52:37;;;;;;;25.52;12.65;;;;;;;-3.63;78.14;99412.78;1765025;81;25544;-72
2021/12/29 00:55:04;;;;;;;24.37;12.25;;;;;;;-3.63;78.25;99406.70;1764983;81;25525;-71
2021/12/29 00:57:31;;;;;;;29.20;12.65;;;;;;;-3.65;78.22;99411.44;1734736;81;25634;-71
2021/12/29 00:59:57;;;;;;;27.82;12.60;;;;;;;-3.61;78.37;99408.09;1765086;81;25529;-71
2021/12/29 01:02:24;;;;;;;24.05;12.47;;;;;;;-3.56;78.39;99421.90;1764972;81;27504;-71
2021/12/29 01:04:50;;;;;;;21.75;11.57;;;;;;;-3.54;78.30;99409.27;1765027;81;25597;-71
2021/12/29 01:07:18;;;;;;;25.37;14.03;;;;;;;-3.54;78.26;99409.77;1765015;81;25395;-70
2021/12/29 01:09:44;;;;;;;24.30;11.60;;;;;;;-3.52;78.21;99415.11;1738953;81;25683;-72
2021/12/29 01:12:12;;;;;;;22.75;11.83;;;;;;;-3.52;78.18;99409.00;1764990;81;25470;-72
2021/12/29 01:14:43;;;;;;;23.20;12.70;;;;;;;-3.53;78.16;99407.41;1764947;81;27886;-71
2021/12/29 01:17:08;;;;;;;28.20;13.48;;;;;;;-3.52;78.15;99404.54;1764383;81;25728;-71
2021/12/29 01:19:34;;;;;;;22.75;11.68;;;;;;;-3.51;78.21;99407.45;1765011;81;25608;-71
2021/12/29 01:22:03;;;;;;;26.65;12.65;;;;;;;-3.49;78.14;99413.82;1764866;81;26268;-71
2021/12/29 01:24:31;;;;;;;23.27;12.82;;;;;;;-3.48;78.21;99416.23;1765023;81;25623;-71
2021/12/29 01:26:59;;;;;;;23.90;11.83;;;;;;;-3.47;78.18;99424.45;1764975;81;27383;-71
2021/12/29 01:29:29;;;;;;;23.85;11.63;;;;;;;-3.48;78.11;99427.34;1764813;81;25458;-71
2021/12/29 01:31:59;;;;;;;24.15;11.43;;;;;;;-3.49;78.11;99428.36;1739015;81;25519;-71
2021/12/29 01:34:26;;;;;;;29.70;14.65;;;;;;;-3.47;78.17;99432.92;1765218;81;25636;-71
2021/12/29 01:36:53;;;;;;;26.10;12.50;;;;;;;-3.44;78.27;99432.42;1764949;81;25581;-72
2021/12/29 01:39:21;;;;;;;24.77;12.28;;;;;;;-3.42;78.24;99431.69;1738731;82;27362;-72
2021/12/29 01:41:52;;;;;;;28.05;13.65;;;;;;;-3.44;78.11;99430.59;1764834;81;25426;-72
2021/12/29 01:44:23;;;;;;;25.10;12.98;;;;;;;-3.45;78.12;99421.58;1764919;81;25406;-71
2021/12/29 01:46:48;;;;;;;28.30;12.25;;;;;;;-3.48;78.06;99416.23;1764579;81;25644;-71
2021/12/29 01:49:15;;;;;;;25.70;12.93;;;;;;;-3.47;78.14;99427.63;1765003;81;25399;-71
2021/12/29 01:51:48;;;;;;;26.33;12.68;;;;;;;-3.48;78.11;99424.69;1764826;81;27444;-71
2021/12/29 01:54:23;;;;;;;26.37;13.32;;;;;;;-3.47;78.16;99427.10;1763888;81;25789;-71
2021/12/29 01:56:46;;;;;;;28.23;13.83;;;;;;;-3.48;78.14;99426.81;1763820;80;25635;-71
2021/12/29 01:59:14;;;;;;;27.62;12.25;;;;;;;-3.48;78.18;99430.77;1764862;81;25667;-71
2021/12/29 02:01:43;;;;;;;25.55;12.90;;;;;;;-3.50;78.07;99430.74;1765100;81;25402;-71
2021/12/29 02:04:10;;;;;;;24.23;11.60;;;;;;;-3.49;78.17;99441.58;1765265;81;27382;-71
2021/12/29 02:06:37;;;;;;;27.95;13.08;;;;;;;-3.46;78.46;99435.83;1764827;81;25736;-71
2021/12/29 02:09:06;;;;;;;27.48;11.97;;;;;;;-3.43;78.34;99440.12;1738982;81;25593;-71
2021/12/29 02:11:34;;;;;;;22.15;12.03;;;;;;;-3.43;78.26;99432.72;1764924;81;25697;-71
2021/12/29 02:14:06;;;;;;;23.95;12.20;;;;;;;-3.39;78.18;99434.66;1739086;81;25418;-71
2021/12/29 02:16:34;;;;;;;25.17;12.47;;;;;;;-3.37;78.22;99434.42;1740555;81;27429;-71
2021/12/29 02:19:04;;;;;;;26.10;12.82;;;;;;;-3.35;78.26;99430.19;1727364;82;26217;-71
2021/12/29 02:21:33;;;;;;;28.07;12.95;;;;;;;-3.34;78.29;99427.84;1728154;83;25659;-72
2021/12/29 02:26:31;;;;;;;29.75;12.35;;;;;;;-3.32;78.22;99419.96;1728862;82;25573;-72
2021/12/29 02:29:00;;;;;;;27.07;12.73;;;;;;;-3.34;77.96;99421.22;1728813;82;27397;-72
2021/12/29 02:31:28;;;;;;;25.40;11.68;;;;;;;-3.35;78.03;99419.11;1728779;82;35214;-72
2021/12/29 02:33:56;;;;;;;26.50;12.40;;;;;;;-3.35;77.94;99416.97;1728953;82;25654;-71
2021/12/29 02:36:23;;;;;;;27.65;13.70;;;;;;;-3.39;78.01;99413.50;1728730;82;25693;-71
2021/12/29 02:38:54;;;;;;;23.20;11.80;;;;;;;-3.39;78.13;99413.50;1728788;82;25461;-71
2021/12/29 02:41:18;;;;;;;25.48;13.30;;;;;;;-3.38;78.26;99409.00;1728206;83;27364;-71
2021/12/29 02:43:46;;;;;;;27.82;13.90;;;;;;;-3.42;78.12;99407.36;1728622;83;25385;-71
2021/12/29 02:46:16;;;;;;;24.60;13.35;;;;;;;-3.44;78.15;99403.33;1728745;83;25400;-71
2021/12/29 02:48:52;;;;;;;;;;;;;;;-3.42;78.26;99400.75;1731329;82;25634;-71
2021/12/29 02:51:14;;;;;;;22.90;11.88;;;;;;;-3.45;78.21;99393.28;1729083;82;25607;-71
2021/12/29 02:53:41;;;;;;;28.02;14.25;;;;;;;-3.49;78.31;99392.67;1728728;83;27328;-72
2021/12/29 02:56:08;;;;;;;27.05;14.03;;;;;;;-3.51;78.29;99391.58;1728707;83;25562;-71
2021/12/29 02:58:34;;;;;;;23.70;12.90;;;;;;;-3.52;78.43;99383.39;1728788;82;25404;-71
2021/12/29 03:01:06;;;;;;;30.30;13.13;;;;;;;-3.50;78.54;99376.02;1728705;82;25816;-71
2021/12/29 03:03:36;;;;;;;30.82;13.75;;;;;;;-3.50;78.48;99378.66;1728842;83;25225;-72
2021/12/29 03:06:01;;;;;;;26.17;12.45;;;;;;;-3.50;78.47;99388.44;1674602;84;27453;-71
2021/12/29 03:08:28;;;;;;;30.40;13.45;;;;;;;-3.52;78.39;99390.50;1728629;83;25717;-71
2021/12/29 03:10:55;;;;;;;26.07;12.78;;;;;;;-3.54;78.43;99397.87;1728785;83;25610;-71
2021/12/29 03:13:25;;;;;;;25.35;12.68;;;;;;;-3.58;78.53;99393.05;1728671;83;25668;-71
2021/12/29 03:15:53;;;;;;;25.10;12.60;;;;;;;-3.58;78.48;99397.55;1728799;81;25453;-71
2021/12/29 03:18:20;;;;;;;26.25;13.60;;;;;;;-3.56;78.55;99398.10;1728911;82;27319;-71
2021/12/29 03:20:48;;;;;;;24.72;12.50;;;;;;;-3.55;78.56;99401.57;1728971;82;25603;-71
2021/12/29 03:23:15;;;;;;;27.17;12.68;;;;;;;-3.57;78.53;99400.48;1728706;83;25655;-71
2021/12/29 03:25:43;;;;;;;26.85;13.53;;;;;;;-3.54;78.62;99401.34;1728751;82;25656;-71
2021/12/29 03:28:10;;;;;;;22.00;11.28;;;;;;;-3.51;78.64;99403.48;1728739;83;25462;-71
2021/12/29 03:30:43;;;;;;;24.12;12.43;;;;;;;-3.48;78.69;99412.27;1728763;83;27444;-71
2021/12/29 03:33:10;;;;;;;25.75;13.20;;;;;;;-3.47;78.49;99402.52;1728893;82;25404;-72
2021/12/29 03:35:42;;;;;;;29.87;13.48;;;;;;;-3.48;78.46;99403.54;1728799;82;25627;-71
2021/12/29 03:38:16;;;;;;;27.50;14.03;;;;;;;-3.50;78.45;99399.81;1728712;83;25650;-71
2021/12/29 03:40:43;;;;;;;26.73;13.22;;;;;;;-3.49;78.50;99397.95;1728815;82;25427;-71
2021/12/29 03:43:11;;;;;;;21.62;11.60;;;;;;;-3.52;78.44;99389.17;1728692;83;27491;-71
2021/12/29 03:45:45;;;;;;;26.83;13.30;;;;;;;-3.51;78.40;99396.08;1728870;83;25561;-71
2021/12/29 03:48:14;;;;;;;20.80;10.98;;;;;;;-3.53;78.42;99395.52;1728736;82;25400;-71
2021/12/29 03:50:42;;;;;;;26.25;13.48;;;;;;;-3.53;78.52;99391.02;1728762;82;26276;-71
2021/12/29 03:53:10;;;;;;;27.40;13.05;;;;;;;-3.57;78.33;99397.31;1728748;83;25470;-71
2021/12/29 03:55:36;;;;;;;25.27;12.98;;;;;;;-3.58;78.45;99404.95;1728734;83;27368;-71
2021/12/29 03:58:03;;;;;;;26.70;13.30;;;;;;;-3.58;78.53;99401.51;1703854;83;25670;-71
2021/12/29 04:00:30;;;;;;;28.80;13.62;;;;;;;-3.60;78.47;99408.88;1728746;83;25584;-71
2021/12/29 04:02:56;;;;;;;26.62;14.07;;;;;;;-3.58;78.68;99412.09;1728811;83;25674;-71
2021/12/29 04:05:24;;;;;;;25.50;12.95;;;;;;;-3.57;78.68;99408.41;1728822;83;25432;-72
2021/12/29 04:07:57;;;;;;;25.43;12.68;;;;;;;-3.54;78.55;99409.77;1728658;82;27387;-72
2021/12/29 04:10:21;;;;;;;27.20;13.10;;;;;;;-3.54;78.36;99411.09;1728065;83;25601;-72
2021/12/29 04:12:48;;;;;;;29.90;14.40;;;;;;;-3.58;78.43;99412.09;1728681;82;25457;-72
2021/12/29 04:15:16;;;;;;;24.20;12.82;;;;;;;-3.58;78.50;99407.59;1728615;82;25681;-72
2021/12/29 04:17:44;;;;;;;27.13;13.22;;;;;;;-3.59;78.43;99400.72;1728690;81;25388;-72
2021/12/29 04:23:08;;;;;;;25.30;13.40;;;;;;;-3.63;78.45;99384.23;1728607;83;25811;-70
2021/12/29 04:25:37;;;;;;;29.45;13.48;;;;;;;-3.63;78.57;99388.20;1728723;83;25391;-70
2021/12/29 04:28:09;;;;;;;29.50;14.58;;;;;;;-3.59;78.80;99390.14;1704048;83;25636;-70
2021/12/29 04:30:37;;;;;;;23.25;11.88;;;;;;;-3.57;78.83;99403.92;1703859;83;25618;-70
2021/12/29 04:33:04;;;;;;;31.35;13.43;;;;;;;-3.57;78.55;99402.59;1728731;82;28224;-72
2021/12/29 04:35:31;;;;;;;27.58;13.28;;;;;;;-3.60;78.37;99393.02;1728595;83;25381;-72
2021/12/29 04:37:58;;;;;;;26.80;14.20;;;;;;;-3.62;78.44;99386.64;1728704;82;25559;-71
2021/12/29 04:40:25;;;;;;;25.60;12.55;;;;;;;-3.64;78.45;99391.37;1728705;83;26198;-71
2021/12/29 04:42:52;;;;;;;30.48;13.90;;;;;;;-3.65;78.41;99396.37;1728731;82;25575;-71
2021/12/29 04:45:19;;;;;;;26.65;12.93;;;;;;;-3.66;78.44;99400.56;1728648;83;27970;-71
2021/12/29 04:47:47;;;;;;;27.35;13.53;;;;;;;-3.68;78.44;99393.40;1728104;82;25836;-71
2021/12/29 04:50:24;;;;;;;25.20;13.40;;;;;;;-3.65;78.49;99390.29;1728721;82;25589;-71
2021/12/29 04:52:46;;;;;;;27.82;13.32;;;;;;;-3.69;78.35;99389.97;1704230;83;26383;-72
2021/12/29 04:55:13;;;;;;;27.42;13.35;;;;;;;-3.71;78.40;99393.38;1728715;83;25387;-72
2021/12/29 04:57:39;;;;;;;28.67;14.70;;;;;;;-3.67;78.65;99397.13;1728583;83;28006;-70
2021/12/29 05:00:08;;;;;;;31.75;15.68;;;;;;;-3.68;78.45;99390.76;1728592;82;25713;-71
2021/12/29 05:02:36;;;;;;;28.23;13.70;;;;;;;-3.70;78.47;99394.16;1704279;83;25675;-72
2021/12/29 05:05:18;;;;;;;27.27;14.60;;;;;;;-3.71;78.39;99390.73;1730215;82;26333;-71
2021/12/29 05:10:16;;;;;;;28.40;14.60;;;;;;;-3.68;78.31;99390.76;1730320;83;28179;-71
2021/12/29 05:12:42;;;;;;;29.50;13.60;;;;;;;-3.69;78.40;99395.78;1729912;82;25632;-71
2021/12/29 05:15:09;;;;;;;27.35;13.32;;;;;;;-3.73;78.25;99386.70;1729959;82;25252;-71
2021/12/29 05:17:35;;;;;;;27.25;13.75;;;;;;;-3.76;78.51;99405.17;1728634;81;26181;-71
2021/12/29 05:20:03;;;;;;;31.55;13.80;;;;;;;-3.80;78.24;99387.66;1728650;83;25624;-71
2021/12/29 05:22:29;;;;;;;25.50;12.93;;;;;;;-3.81;78.38;99382.61;1728618;83;28004;-71
2021/12/29 05:24:56;;;;;;;30.17;14.00;;;;;;;-3.81;78.31;99390.54;1728581;83;25554;-71
2021/12/29 05:27:22;;;;;;;25.60;13.13;;;;;;;-3.80;78.41;99394.77;1728750;82;25604;-70
2021/12/29 05:29:48;;;;;;;30.80;14.53;;;;;;;-3.81;78.39;99390.02;1728787;82;25693;-70
2021/12/29 05:32:15;;;;;;;29.15;13.45;;;;;;;-3.78;78.49;99388.23;1728810;83;25400;-70
2021/12/29 05:34:42;;;;;;;27.48;13.03;;;;;;;-3.80;78.43;99393.45;1728860;83;27413;-71
2021/12/29 05:37:08;;;;;;;28.77;13.10;;;;;;;-3.83;78.36;99396.06;1728720;82;25409;-71
2021/12/29 05:39:35;;;;;;;29.07;13.83;;;;;;;-3.80;78.59;99399.56;1704017;83;25664;-73
2021/12/29 05:42:01;;;;;;;29.27;13.25;;;;;;;-3.80;78.47;99408.81;1728728;82;25624;-69
2021/12/29 05:44:27;;;;;;;25.90;12.95;;;;;;;-3.81;78.43;99402.44;1728825;83;25608;-71
2021/12/29 05:46:54;;;;;;;40.00;14.95;;;;;;;-3.85;78.34;99405.25;1703948;83;27876;-71
2021/12/29 05:49:20;;;;;;;30.48;14.07;;;;;;;-3.85;78.52;99403.92;1728743;82;25385;-71
2021/12/29 05:51:46;;;;;;;30.32;15.55;;;;;;;-3.83;78.58;99406.63;1703978;83;25648;-71
2021/12/29 05:54:13;;;;;;;30.75;14.93;;;;;;;-3.87;78.59;99399.40;1728776;82;25632;-71
2021/12/29 05:56:40;;;;;;;28.77;14.03;;;;;;;-3.88;78.65;99405.21;1728861;83;25467;-71
2021/12/29 05:59:07;;;;;;;30.37;14.55;;;;;;;-3.91;78.56;99403.03;1728817;82;27386;-71
2021/12/29 06:01:33;;;;;;;33.15;15.28;;;;;;;-3.89;78.77;99408.88;1728711;83;25589;-71
2021/12/29 06:03:59;;;;;;;27.20;13.62;;;;;;;-3.88;78.78;99413.64;1728932;82;25419;-71
2021/12/29 06:06:26;;;;;;;30.37;15.18;;;;;;;-3.90;78.71;99405.15;1728725;82;25745;-71
2021/12/29 06:08:52;;;;;;;28.42;14.53;;;;;;;-3.94;78.72;99400.33;1704169;83;25615;-71
2021/12/29 06:11:19;;;;;;;30.32;15.78;;;;;;;-3.94;78.86;99405.61;1728754;83;27343;-71
2021/12/29 06:13:45;;;;;;;29.27;14.30;;;;;;;-3.93;78.83;99405.11;1728737;83;25569;-71
2021/12/29 06:16:12;;;;;;;32.38;14.87;;;;;;;-3.95;78.81;99408.48;1728751;83;25450;-70
2021/12/29 06:18:38;;;;;;;29.80;15.05;;;;;;;-3.95;78.89;99408.48;1760159;81;25731;-71
2021/12/29 06:21:04;;;;;;;31.60;15.15;;;;;;;-3.96;79.03;99402.94;1761888;81;25609;-71
2021/12/29 06:23:31;;;;;;;25.92;13.95;;;;;;;-3.96;78.97;99409.02;1761887;81;27543;-71
2021/12/29 06:25:58;;;;;;;30.37;15.10;;;;;;;-3.92;79.09;99419.13;1733662;81;25744;-71
2021/12/29 06:28:24;;;;;;;32.67;15.95;;;;;;;-3.93;79.11;99418.33;1761528;81;25686;-71
2021/12/29 06:30:50;;;;;;;30.30;13.80;;;;;;;-3.90;79.13;99418.36;1761820;81;26486;-71
2021/12/29 06:33:17;;;;;;;30.32;14.45;;;;;;;-3.94;79.00;99423.31;1762038;81;25640;-71
2021/12/29 06:35:43;;;;;;;34.70;15.10;;;;;;;-3.99;78.86;99435.11;1761932;81;27929;-71
2021/12/29 06:38:09;;;;;;;28.83;14.93;;;;;;;-3.95;79.15;99435.73;1761814;81;25591;-71
2021/12/29 06:40:36;;;;;;;28.07;15.18;;;;;;;-3.97;79.02;99440.45;1761894;81;25616;-71
2021/12/29 06:43:02;;;;;;;30.65;16.02;;;;;;;-3.98;79.04;99442.80;1761775;81;25680;-70
2021/12/29 06:45:29;;;;;;;31.15;15.63;;;;;;;-3.98;79.45;99445.44;1761940;81;25490;-72
2021/12/29 06:47:55;;;;;;;35.45;16.23;;;;;;;-4.00;79.10;99438.27;1761823;81;27969;-71
2021/12/29 06:50:22;;;;;;;32.17;16.37;;;;;;;-4.01;79.07;99446.43;1733962;81;25634;-71
2021/12/29 06:52:48;;;;;;;32.93;15.43;;;;;;;-3.99;79.23;99452.27;1761953;81;25576;-71
2021/12/29 06:55:15;;;;;;;35.23;16.62;;;;;;;-4.00;79.37;99447.52;1734033;81;26658;-71
2021/12/29 06:57:42;;;;;;;34.23;15.58;;;;;;;-4.01;79.17;99448.55;1761902;81;25605;-71
2021/12/29 07:00:11;;;;;;;33.15;15.65;;;;;;;-4.05;79.18;99450.06;1761836;81;27463;-72
2021/12/29 07:02:37;;;;;;;35.88;16.30;;;;;;;-4.10;79.24;99455.23;1761857;81;25599;-71
2021/12/29 07:05:06;;;;;;;31.42;15.68;;;;;;;-4.12;79.32;99459.92;1761905;81;25673;-71
2021/12/29 07:07:33;;;;;;;32.95;15.83;;;;;;;-4.10;79.34;99461.84;1761863;81;25625;-71
2021/12/29 07:10:00;;;;;;;33.78;16.60;;;;;;;-4.07;79.51;99463.20;1734055;81;25638;-71
2021/12/29 07:12:26;;;;;;;29.32;14.53;;;;;;;-4.05;79.68;99459.80;1761869;81;27495;-71
2021/12/29 07:14:53;;;;;;;34.15;17.57;;;;;;;-4.00;79.49;99469.16;1761793;81;25709;-71
2021/12/29 07:17:19;;;;;;;36.77;16.67;;;;;;;-4.02;79.52;99474.70;1753283;81;25544;-71
2021/12/29 07:19:46;;;;;;;34.98;16.65;;;;;;;-4.02;79.41;99470.73;1703882;83;25685;-71
2021/12/29 07:22:12;;;;;;;33.95;17.35;;;;;;;-3.99;79.45;99478.70;1728776;82;25455;-71
2021/12/29 07:24:39;;;;;;;35.85;17.02;;;;;;;-3.98;79.60;99477.67;1728731;83;27284;-70
2021/12/29 07:27:05;;;;;;;38.35;17.70;;;;;;;-3.96;79.52;99481.67;1728898;83;25622;-70
2021/12/29 07:29:32;;;;;;;36.50;17.57;;;;;;;-3.91;79.74;99480.98;1729121;83;25411;-71
2021/12/29 07:31:58;;;;;;;41.65;17.75;;;;;;;-3.90;79.58;99485.73;1728696;83;25704;-71
2021/12/29 07:34:26;;;;;;;38.67;17.40;;;;;;;-3.85;79.65;99481.35;1728843;83;25162;-72
2021/12/29 07:36:53;;;;;;;44.15;19.70;;;;;;;-3.79;79.67;99475.67;1728759;83;27402;-72
2021/12/29 07:39:20;;;;;;;42.98;18.40;;;;;;;-3.79;79.51;99473.03;1728572;82;25604;-72
2021/12/29 07:41:48;;;;;;;35.23;16.57;;;;;;;-3.75;79.50;99474.16;1728711;82;25592;-72
2021/12/29 07:44:17;;;;;;;38.67;18.05;;;;;;;-3.73;79.54;99476.03;1728697;83;26162;-71
2021/12/29 07:46:46;;;;;;;40.50;17.07;;;;;;;-3.72;79.49;99477.66;1728851;82;25408;-71
2021/12/29 07:49:13;;;;;;;39.05;18.00;;;;;;;-3.70;79.45;99483.50;1728751;83;27009;-71
2021/12/29 07:51:41;;;;;;;38.08;18.27;;;;;;;-3.66;79.37;99479.87;1728641;83;25616;-71
2021/12/29 07:54:09;;;;;;;43.38;17.95;;;;;;;-3.62;79.51;99483.13;1728692;82;25474;-71
2021/12/29 07:56:36;;;;;;;41.02;18.27;;;;;;;-3.62;79.29;99477.84;1728676;82;25737;-72
2021/12/29 07:59:03;;;;;;;38.10;18.67;;;;;;;-3.62;79.20;99480.49;1729122;83;25618;-70
2021/12/29 08:01:30;;;;;;;40.85;18.75;;;;;;;-3.60;79.36;99483.70;1728732;83;27458;-72
2021/12/29 08:03:56;;;;;;;38.45;18.70;;;;;;;-3.58;79.22;99480.29;1728682;83;25617;-73
2021/12/29 08:06:22;;;;;;;42.40;18.85;;;;;;;-3.54;79.41;99485.11;1728776;82;25329;-71
2021/12/29 08:08:49;;;;;;;42.78;18.95;;;;;;;-3.47;79.63;99485.27;1703970;83;25737;-71
2021/12/29 08:11:19;;;;;;;41.85;18.95;;;;;;;-3.41;79.42;99479.02;1728786;83;25538;-71
2021/12/29 08:13:47;;;;;;;44.42;20.23;;;;;;;-3.36;79.32;99478.32;1728815;82;27399;-71
2021/12/29 08:16:14;;;;;;;38.45;17.52;;;;;;;-3.34;79.36;99483.37;1728619;82;25712;-71
2021/12/29 08:18:40;;;;;;;38.10;18.87;;;;;;;-3.30;79.23;99481.84;1724374;81;25493;-71
2021/12/29 08:21:07;;;;;;;44.53;19.90;;;;;;;-3.28;79.16;99478.47;1761890;81;25628;-72
2021/12/29 08:23:34;;;;;;;43.38;19.27;;;;;;;-3.28;79.07;99481.91;1761824;81;25298;-71
2021/12/29 08:26:01;;;;;;;48.35;20.55;;;;;;;-3.26;79.02;99485.64;1761752;81;27368;-71
2021/12/29 08:28:28;;;;;;;40.43;18.85;;;;;;;-3.25;78.87;99480.12;1761763;81;25559;-71
2021/12/29 08:30:56;;;;;;;48.45;21.52;;;;;;;-3.26;78.84;99480.35;1761835;81;25634;-72
2021/12/29 08:33:23;;;;;;;49.38;22.58;;;;;;;-3.34;78.55;99476.23;1761831;81;25663;-72
2021/12/29 08:35:50;;;;;;;41.10;19.48;;;;;;;-3.35;78.77;99473.83;1761735;81;25498;-71
2021/12/29 08:38:17;;;;;;;44.98;19.67;;;;;;;-3.33;79.11;99466.48;1763180;80;27944;-72
2021/12/29 08:40:44;;;;;;;44.00;20.77;;;;;;;-3.30;78.89;99471.27;1784061;80;25847;-71
2021/12/29 08:43:11;;;;;;;48.15;20.77;;;;;;;-3.32;78.81;99477.33;1782403;80;25938;-72
2021/12/29 08:45:42;;;;;;;49.13;20.62;;;;;;;-3.27;79.09;99477.41;1740892;81;25719;-71
2021/12/29 08:48:07;;;;;;;32.95;16.20;;;;;;;-3.23;79.12;99477.23;1754977;81;25656;-71
2021/12/29 08:50:34;;;;;;;46.00;20.02;;;;;;;-3.19;79.13;99479.15;1734269;81;27415;-71
2021/12/29 08:53:04;;;;;;;44.80;20.02;;;;;;;-3.19;78.89;99472.53;1725044;83;25595;-71
2021/12/29 08:55:34;;;;;;;48.08;21.60;;;;;;;-3.16;78.93;99484.50;1711259;83;25751;-71
2021/12/29 08:58:00;;;;;;;42.05;19.60;;;;;;;-3.15;78.72;99482.15;1696973;82;25881;-71
2021/12/29 09:00:27;;;;;;;52.08;21.50;;;;;;;-3.18;78.70;99485.27;1728962;82;26216;-71
2021/12/29 09:02:59;;;;;;;51.73;21.23;;;;;;;-3.15;78.92;99488.77;1728858;83;28037;-75
2021/12/29 09:05:25;;;;;;;52.13;21.42;;;;;;;-3.13;78.64;99486.67;1699742;83;25729;-71
2021/12/29 09:07:52;;;;;;;45.73;20.97;;;;;;;-3.11;78.70;99485.91;1728678;82;25549;-70
2021/12/29 09:10:22;;;;;;;53.38;21.45;;;;;;;-3.06;78.76;99482.55;1734064;82;27034;-71
2021/12/29 09:12:51;;;;;;;46.98;21.60;;;;;;;-3.08;78.71;99478.00;1706350;82;25894;-72
2021/12/29 09:15:21;;;;;;;48.00;20.20;;;;;;;-3.01;78.97;99485.29;1737376;82;27508;-72
2021/12/29 09:17:47;;;;;;;52.53;21.23;;;;;;;-3.02;78.59;99486.31;1785618;80;25565;-72
2021/12/29 09:20:24;;;;;;;49.93;21.12;;;;;;;-3.05;78.50;99483.64;1785986;80;25589;-71
2021/12/29 09:22:45;;;;;;;51.35;20.50;;;;;;;-3.06;78.63;99488.64;1760278;80;25801;-71
2021/12/29 09:25:11;;;;;;;44.93;20.12;;;;;;;-3.01;78.62;99495.34;1786058;80;25640;-71
2021/12/29 09:27:38;;;;;;;54.60;24.45;;;;;;;-2.95;78.82;99492.78;1786056;80;27041;-71
2021/12/29 09:30:06;;;;;;;55.75;23.18;;;;;;;-2.87;78.95;99484.45;1785937;80;25457;-71
2021/12/29 09:32:32;;;;;;;51.55;21.07;;;;;;;-2.82;78.92;99493.27;1786057;80;25575;-72
2021/12/29 09:35:00;;;;;;;53.98;22.48;;;;;;;-2.75;78.71;99489.67;1786022;80;26175;-71
2021/12/29 09:37:30;;;;;;;52.98;22.17;;;;;;;-2.74;78.49;99488.11;1785756;80;25426;-71
2021/12/29 09:39:57;;;;;;;46.85;21.60;;;;;;;-2.65;78.75;99494.59;1786108;80;28038;-72
2021/12/29 09:42:26;;;;;;;49.77;22.32;;;;;;;-2.67;77.97;99493.25;1786008;80;25449;-72
2021/12/29 09:44:53;;;;;;;51.58;22.82;;;;;;;-2.75;77.76;99485.70;1785962;80;25677;-71
2021/12/29 09:47:20;;;;;;;51.40;23.15;;;;;;;-2.82;77.66;99486.66;1785891;80;25636;-71
2021/12/29 09:49:47;;;;;;;45.48;20.55;;;;;;;-2.88;77.71;99486.81;1773982;80;25597;-72
2021/12/29 09:52:14;;;;;;;45.90;21.40;;;;;;;-2.88;78.00;99481.02;1764766;81;27409;-71
2021/12/29 09:54:40;;;;;;;47.33;22.17;;;;;;;-2.86;78.13;99488.69;1764676;81;25398;-72
2021/12/29 09:57:07;;;;;;;53.83;21.62;;;;;;;-2.85;78.17;99485.02;1764826;81;25434;-72
2021/12/29 09:59:34;;;;;;;47.00;21.48;;;;;;;-2.85;78.01;99491.63;1764854;81;25638;-72
2021/12/29 10:02:00;;;;;;;51.15;21.10;;;;;;;-2.85;78.30;99491.09;1765843;81;25299;-72
2021/12/29 10:04:27;;;;;;;54.85;22.82;;;;;;;-2.83;78.13;99489.53;1766244;81;27908;-72
2021/12/29 10:06:53;;;;;;;55.60;22.65;;;;;;;-2.84;78.04;99498.01;1764648;81;25434;-71
2021/12/29 10:09:20;;;;;;;49.88;22.35;;;;;;;-2.84;78.07;99491.39;1764767;81;25447;-71
2021/12/29 10:11:47;;;;;;;52.27;22.32;;;;;;;-2.83;78.31;99492.19;1737612;81;26447;-72
2021/12/29 10:14:17;;;;;;;49.05;22.60;;;;;;;-2.73;78.57;99488.91;1762683;81;25818;-73
2021/12/29 10:16:49;;;;;;;56.65;23.47;;;;;;;-2.69;78.53;99478.10;1763675;81;27318;-73
2021/12/29 10:19:16;;;;;;;54.70;23.30;;;;;;;-2.60;78.68;99468.73;1762971;81;25626;-72
2021/12/29 10:21:47;;;;;;;52.73;23.62;;;;;;;-2.56;78.37;99466.39;1763174;81;25648;-71
2021/12/29 10:24:16;;;;;;;64.42;24.87;;;;;;;-2.55;78.29;99464.04;1763132;81;26119;-71
2021/12/29 10:26:46;;;;;;;56.93;24.73;;;;;;;-2.57;78.06;99466.10;1763506;81;25431;-72
2021/12/29 10:29:17;;;;;;;51.73;23.05;;;;;;;-2.60;77.85;99456.81;1763217;81;27199;-72
2021/12/29 10:31:48;;;;;;;58.73;24.80;;;;;;;-2.68;77.72;99461.19;1763121;81;25399;-72
2021/12/29 10:34:23;;;;;;;63.52;26.68;;;;;;;-2.72;77.93;99459.55;1763321;81;25534;-72
2021/12/29 10:37:07;;;;;;;65.55;26.15;;;;;;;-2.73;77.97;99479.11;1762854;81;25820;-72
2021/12/29 10:39:38;;;;;;;55.43;24.45;;;;;;;-2.79;78.04;99477.95;1763222;81;25377;-72
2021/12/29 10:42:15;;;;;;;59.60;25.37;;;;;;;-2.84;78.18;99482.13;1735982;81;27199;-71
2021/12/29 10:44:49;;;;;;;64.92;26.75;;;;;;;-2.80;78.55;99477.15;1763127;81;25585;-72
2021/12/29 10:47:23;;;;;;;59.73;26.60;;;;;;;-2.79;78.57;99479.27;1757812;81;25395;-72
2021/12/29 10:50:09;;;;;;;59.93;25.37;;;;;;;-2.78;78.60;99481.67;1763228;81;25699;-71
2021/12/29 10:52:50;;;;;;;67.97;26.17;;;;;;;-2.78;78.69;99472.94;1737430;81;25663;-71
2021/12/29 10:55:31;;;;;;;65.05;26.37;;;;;;;-2.75;78.75;99474.58;1762327;81;27341;-70
2021/12/29 10:58:04;;;;;;;69.75;26.73;;;;;;;-2.70;78.97;99467.25;1761321;81;25728;-71
2021/12/29 11:00:31;;;;;;;60.52;25.27;;;;;;;-2.68;78.84;99471.25;1763307;81;25554;-71
2021/12/29 11:03:12;;;;;;;62.67;24.37;;;;;;;-2.62;78.95;99474.80;1763124;81;25690;-72
2021/12/29 11:05:47;;;;;;;67.53;26.70;;;;;;;-2.60;79.01;99475.34;1763325;81;25560;-72
2021/12/29 11:08:11;;;;;;;65.70;28.15;;;;;;;-2.51;79.11;99475.20;1762825;81;27613;-72
2021/12/29 11:10:38;;;;;;;71.47;28.32;;;;;;;-2.43;79.20;99476.66;1763107;81;25601;-72
2021/12/29 11:13:05;;;;;;;70.30;27.52;;;;;;;-2.40;78.99;99471.38;1763131;81;25657;-71
2021/12/29 11:15:38;;;;;;;60.80;26.93;;;;;;;-2.36;78.90;99475.95;1763153;81;26154;-71
2021/12/29 11:18:10;;;;;;;70.35;28.05;;;;;;;-2.35;78.63;99471.45;1763195;81;25445;-71
2021/12/29 11:20:39;;;;;;;65.90;28.65;;;;;;;-2.37;78.44;99469.58;1728394;83;27354;-71
2021/12/29 11:23:15;;;;;;;47.50;21.60;;;;;;;-2.36;78.80;99465.36;1728660;83;25747;-71
2021/12/29 11:25:44;;;;;;;68.75;29.67;;;;;;;-2.33;78.57;99479.98;1703848;83;25583;-71
2021/12/29 11:28:26;;;;;;;74.25;28.90;;;;;;;-2.38;78.37;99471.44;1728814;83;25686;-72